Soaring Guidance
Issued by NWS Reno, NV

Home | Current Version | Previous Version | Text Only | Print | Product List | Glossary On
Versions: 1 2 3 4 5 6 7 8
000
UXUS97 KREV 231341
SRGREV

SOARING FORECAST
NATIONAL WEATHER SERVICE - RENO NV
700 AM PDT FRI JUN 23 2017

THIS SOARING FORECAST IS FOR THE EASTERN SIERRA AND WESTERN NEVADA
WITH SPECIFIC INDICES FOR THE GREATER RENO AREA.

THIS FORECAST IS PREPARED DAILY BY 700 AM AND IS NOT UPDATED.

FOR CURRENT FLIGHT CONDITIONS...FORECASTS...AND ADVISORIES...ACCESS
YOUR LOCAL BRIEFING OUTLET OR FLIGHT SERVICE STATION.

*******************************************************************
FORECASTED LOCAL INDICES FOR RENO:        TODAY     YESTERDAY
FORECASTED MAX TEMP AT RENO (DEG F).....     96          95
FORECASTED TRIGGER TEMPERATURE (DEG F)..     80          82
   EXCEEDED YESTERDAY BY 1055 AM PDT
FORECASTED MAXIMUM ALTITUDE (FT MSL)....  13900       14800
FORECASTED SOARING INDEX (FPM)..........    717         864
FORECASTED K-INDEX.........VALID 18Z....     11           9
FORECASTED K-INDEX.........VALID 00Z....     19          15
FORECASTED LIFTED INDEX....VALID 18Z....      8           9
FORECASTED LIFTED INDEX....VALID 00Z....      3           5

AFTERNOON WINDS ALOFT FORECAST
MSL (FT) WIND/TEMP
9000  9900/+19
10000 9902/+16
12000 2707/+10
14000 2708/+04
16000 2709/-01
18000 2811/-06
24000 2907/-19
30000 2808/-35
34000 2713/-44
39000 2723/-53

SLIDE MOUNTAIN DATA:
     DATE       TIME     TEMP  DEWPT   RH         WIND (MPH)
                        (F)   (F)           | DIR  SPEED GUST
2017-06-23    05:30      53    30     29    | 040   15   18
2017-06-23    05:20      54    31     28    | 054   17   21
2017-06-23    05:00      54    31     28    | 054   14   16
2017-06-23    04:50      54    30     27    | 056   14   18

RENO TAF FORECAST:
KRNO 231120Z 2312/2412 VRB04KT P6SM SKC
     FM232100 07008KT P6SM FEW100 SCT200
     FM240200 02008KT P6SM FEW200
     FM240600 VRB03KT P6SM SKC

CARSON CITY TAF FORECAST:
KCXP 231120Z 2312/2412 VRB04KT P6SM SKC
     FM232000 08010KT P6SM FEW090 SCT200
     FM240200 35008KT P6SM FEW200
     FM240600 VRB03KT P6SM SKC

OUTLOOK FOR THE RENO-CARSON CITY-MINDEN AREA:
.SATURDAY...SUNNY. HIGHS 97 TO 102. LIGHT WINDS.

SUNRISE AND SUNSET
JUNE 23 2017..........SUNRISE   533 AM PDT   SUNSET   830 PM PDT
JUNE 24 2017..........SUNRISE   533 AM PDT   SUNSET   830 PM PDT



USA.gov is the U.S. government's official web portal to all federal, state and local government web resources and services.